U S A F Academy, Colorado
Current Conditions -  °F | °C
As of 9:56 PM on Wednesday 26 Nov 2014 (Local Time) from KSHM Reporting Station
Clear Clear  
Wind Chill: 18°   Ceiling: Unl
Heat Index: 25°   Visibility: 10mi
Dew Point: 21°   Wind: 6mph
Humidity: 86%   Direction: 250°WSW
Pressure: 30.33"   Gusts: NA
Location:  38.8247°N, 104.562°W
Report Text: KSHM 270456Z AUTO 25005KT 10SM CLR M04/M06 A3033 RMK AO2 SLP323 T10391059
Loading
Personal Weather Stations






























Interactive Weather Map New forecast layout! Learn more

10-Day Weather Forecast

Advertisements
Track Severe Weather on mobile